createdAt,value
2019-03-06T00:00:42.732Z,99.90
2019-03-06T00:03:11.556Z,99.90
2019-03-06T00:05:40.305Z,99.90
2019-03-06T00:08:08.744Z,99.90
2019-03-06T00:10:37.249Z,99.90
2019-03-06T00:13:05.775Z,99.90
2019-03-06T00:15:34.298Z,99.70
2019-03-06T00:18:03.086Z,99.50
2019-03-06T00:20:31.643Z,99.30
2019-03-06T00:23:02.062Z,99.00
2019-03-06T00:25:30.428Z,98.30
2019-03-06T00:27:58.889Z,98.40
2019-03-06T00:30:27.693Z,98.30
2019-03-06T00:32:56.141Z,98.20
2019-03-06T00:38:03.429Z,98.00
2019-03-06T00:40:33.611Z,97.70
2019-03-06T00:43:02.136Z,97.60
2019-03-06T00:45:30.667Z,97.40
2019-03-06T00:47:59.138Z,97.40
2019-03-06T00:50:27.579Z,97.30
2019-03-06T00:52:56.022Z,97.30
2019-03-06T00:55:24.619Z,97.10
2019-03-06T00:57:53.080Z,97.20
2019-03-06T01:00:42.949Z,97.20
2019-03-06T01:03:11.854Z,96.50
2019-03-06T01:05:40.360Z,96.80
2019-03-06T01:08:10.672Z,96.30
2019-03-06T01:10:39.155Z,96.20
2019-03-06T01:13:07.659Z,96.30
2019-03-06T01:15:36.411Z,96.30
2019-03-06T01:18:25.711Z,96.20
2019-03-06T01:20:54.268Z,96.20
2019-03-06T01:23:22.716Z,95.50
2019-03-06T01:25:51.232Z,95.90
2019-03-06T01:28:19.706Z,95.90
2019-03-06T01:30:48.146Z,96.10
2019-03-06T01:33:18.239Z,96.00
2019-03-06T01:36:04.775Z,96.10
2019-03-06T01:38:52.897Z,96.30
2019-03-06T01:41:34.771Z,96.00
2019-03-06T01:44:04.860Z,95.80
2019-03-06T01:46:33.299Z,95.60
2019-03-06T01:49:01.780Z,95.70
2019-03-06T01:51:49.632Z,95.90
2019-03-06T01:54:18.136Z,96.20
2019-03-06T01:56:46.577Z,96.20
2019-03-06T01:59:15.016Z,96.40
2019-03-06T02:01:43.743Z,96.70
2019-03-06T02:04:12.194Z,97.10
2019-03-06T02:06:40.873Z,96.70
2019-03-06T02:09:10.187Z,96.60
2019-03-06T02:11:38.792Z,96.40
2019-03-06T02:14:07.250Z,95.90
2019-03-06T02:16:35.856Z,96.10
2019-03-06T02:19:04.531Z,95.90
2019-03-06T02:21:32.976Z,95.90
2019-03-06T02:24:01.435Z,95.40
2019-03-06T02:26:29.867Z,95.60
2019-03-06T02:28:58.311Z,95.20
2019-03-06T02:31:26.796Z,95.20
2019-03-06T02:33:55.308Z,95.40
2019-03-06T02:36:23.751Z,95.60
2019-03-06T02:38:52.209Z,96.00
2019-03-06T02:41:20.938Z,96.20
2019-03-06T02:43:49.450Z,96.40
2019-03-06T02:46:17.958Z,96.90
2019-03-06T02:48:46.468Z,96.90
2019-03-06T02:51:14.977Z,97.30
2019-03-06T02:53:43.451Z,97.50
2019-03-06T02:56:12.844Z,97.60
2019-03-06T02:58:44.293Z,97.40
2019-03-06T03:01:31.094Z,97.50
2019-03-06T03:04:17.658Z,97.90
2019-03-06T03:06:47.772Z,97.90
2019-03-06T03:09:18.055Z,98.50
2019-03-06T03:11:46.946Z,98.80
2019-03-06T03:14:15.496Z,98.90
2019-03-06T03:16:44.108Z,99.40
2019-03-06T03:19:12.946Z,99.30
2019-03-06T03:21:41.480Z,99.70
2019-03-06T03:24:09.924Z,99.70
2019-03-06T03:26:38.649Z,99.90
2019-03-06T03:29:07.424Z,99.90
2019-03-06T03:31:35.973Z,99.90
2019-03-06T03:34:04.448Z,99.90
2019-03-06T03:36:33.031Z,99.90
2019-03-06T03:39:01.547Z,99.90
2019-03-06T03:41:30.326Z,99.90
2019-03-06T03:43:59.062Z,99.90
2019-03-06T03:46:27.501Z,99.90
2019-03-06T03:48:55.945Z,99.90
2019-03-06T03:51:24.560Z,99.90
2019-03-06T03:53:53.084Z,99.90
2019-03-06T03:56:22.229Z,99.90
2019-03-06T03:58:50.939Z,99.90
2019-03-06T04:01:38.721Z,99.90
2019-03-06T04:04:07.882Z,99.90
2019-03-06T04:06:36.400Z,99.90
2019-03-06T04:09:06.271Z,99.90
2019-03-06T04:11:34.736Z,99.90
2019-03-06T04:14:03.195Z,99.90
2019-03-06T04:16:32.004Z,99.90
2019-03-06T04:19:00.540Z,99.90
2019-03-06T04:21:29.053Z,99.90
2019-03-06T04:23:57.503Z,99.90
2019-03-06T04:26:26.051Z,99.90
2019-03-06T04:28:54.491Z,99.90
2019-03-06T04:31:23.007Z,99.90
2019-03-06T04:33:51.476Z,99.90
2019-03-06T04:36:19.975Z,99.90
2019-03-06T04:38:48.420Z,99.90
2019-03-06T04:41:16.887Z,99.90
2019-03-06T04:43:45.320Z,99.90
2019-03-06T04:46:13.783Z,99.90
2019-03-06T04:48:42.249Z,99.90
2019-03-06T04:51:10.680Z,99.90
2019-03-06T04:53:39.120Z,99.90
2019-03-06T04:56:07.855Z,99.90
2019-03-06T04:58:36.287Z,99.90
2019-03-06T05:01:04.868Z,99.90
2019-03-06T05:03:33.324Z,99.90
2019-03-06T05:06:01.766Z,99.90
2019-03-06T05:08:30.472Z,99.90
2019-03-06T05:10:59.009Z,99.90
2019-03-06T05:13:27.450Z,99.90
2019-03-06T05:15:55.883Z,99.90
2019-03-06T05:18:25.982Z,99.90
2019-03-06T05:20:54.411Z,99.90
2019-03-06T05:23:22.851Z,99.90
2019-03-06T05:25:51.317Z,99.90
2019-03-06T05:28:19.816Z,99.90
2019-03-06T05:30:48.259Z,99.90
2019-03-06T05:33:17.292Z,99.90
2019-03-06T05:36:18.624Z,99.90
2019-03-06T05:38:50.811Z,99.90
2019-03-06T05:41:19.319Z,99.90
2019-03-06T05:43:47.764Z,99.90
2019-03-06T05:46:16.305Z,99.90
2019-03-06T05:48:44.754Z,99.90
2019-03-06T05:51:13.248Z,99.90
2019-03-06T05:53:41.891Z,99.90
2019-03-06T05:56:10.328Z,99.90
2019-03-06T05:58:38.768Z,99.90
2019-03-06T06:01:07.248Z,99.90
2019-03-06T06:03:35.685Z,99.90
2019-03-06T06:06:04.296Z,99.90
2019-03-06T06:08:32.769Z,99.90
2019-03-06T06:11:01.283Z,99.90
2019-03-06T06:13:31.021Z,99.90
2019-03-06T06:15:59.678Z,99.90
2019-03-06T06:18:28.500Z,99.90
2019-03-06T06:23:50.568Z,99.90
2019-03-06T06:26:19.087Z,99.90
2019-03-06T06:28:47.526Z,99.90
2019-03-06T06:31:16.697Z,99.90
2019-03-06T06:33:45.131Z,99.90
2019-03-06T06:36:13.578Z,99.90
2019-03-06T06:38:42.107Z,99.90
2019-03-06T06:41:10.547Z,99.90
2019-03-06T06:43:38.984Z,99.90
2019-03-06T06:46:07.658Z,99.90
2019-03-06T06:48:36.252Z,99.90
2019-03-06T06:51:28.599Z,99.90
2019-03-06T06:54:17.902Z,99.90
2019-03-06T06:57:06.890Z,99.90
2019-03-06T06:59:50.431Z,99.90
2019-03-06T07:02:46.049Z,99.90
2019-03-06T07:05:32.715Z,99.90
2019-03-06T07:08:18.313Z,99.90
2019-03-06T07:11:04.623Z,99.90
2019-03-06T07:13:40.483Z,99.90
2019-03-06T07:16:19.146Z,99.90
2019-03-06T07:19:05.544Z,99.90
2019-03-06T07:21:52.007Z,99.90
2019-03-06T07:24:31.202Z,99.90
2019-03-06T07:27:14.977Z,99.90
2019-03-06T07:29:48.067Z,99.90
2019-03-06T07:32:18.140Z,99.90
2019-03-06T07:35:24.807Z,99.90
2019-03-06T07:37:54.955Z,99.90
2019-03-06T07:40:24.560Z,99.90
2019-03-06T07:42:58.057Z,99.90
2019-03-06T07:45:42.015Z,99.90
2019-03-06T07:48:14.936Z,99.90
2019-03-06T07:50:48.139Z,99.90
2019-03-06T07:56:25.946Z,99.90
2019-03-06T07:58:56.187Z,99.90
2019-03-06T08:01:26.979Z,99.90
2019-03-06T08:04:22.152Z,99.90
2019-03-06T08:06:52.348Z,99.90
2019-03-06T08:09:21.332Z,99.70
2019-03-06T08:11:54.464Z,99.90
2019-03-06T08:14:40.911Z,99.50
2019-03-06T08:20:20.937Z,99.30
2019-03-06T08:23:07.048Z,98.50
2019-03-06T08:25:43.881Z,98.70
2019-03-06T08:28:13.040Z,98.60
2019-03-06T08:30:43.405Z,98.50
2019-03-06T08:33:18.141Z,98.30
2019-03-06T08:35:42.189Z,97.70
2019-03-06T08:38:10.701Z,98.20
2019-03-06T08:40:39.168Z,98.00
2019-03-06T08:43:07.692Z,97.50
2019-03-06T08:45:52.708Z,97.80
2019-03-06T08:48:34.872Z,97.60
2019-03-06T08:51:05.076Z,97.40
2019-03-06T08:53:35.171Z,97.30
2019-03-06T08:56:05.348Z,97.30
2019-03-06T08:58:35.519Z,97.10
2019-03-06T09:01:39.884Z,97.00
2019-03-06T09:04:11.038Z,96.80
2019-03-06T09:06:42.563Z,96.90
2019-03-06T09:09:12.726Z,96.80
2019-03-06T09:14:33.643Z,95.80
2019-03-06T09:17:03.812Z,96.10
2019-03-06T09:19:35.776Z,95.60
2019-03-06T09:22:22.771Z,95.00
2019-03-06T09:24:58.852Z,94.90
2019-03-06T09:27:38.318Z,94.70
2019-03-06T09:30:31.828Z,94.90
2019-03-06T09:33:18.286Z,95.10
2019-03-06T09:35:48.403Z,94.60
2019-03-06T09:38:35.352Z,94.40
2019-03-06T09:44:10.543Z,94.60
2019-03-06T09:46:43.989Z,94.70
2019-03-06T09:49:14.143Z,94.70
2019-03-06T09:51:44.270Z,94.00
2019-03-06T09:54:30.776Z,93.80
2019-03-06T09:57:00.857Z,93.70
2019-03-06T09:59:39.551Z,94.10
2019-03-06T10:05:14.281Z,94.10
2019-03-06T10:07:50.444Z,93.80
2019-03-06T10:10:24.228Z,94.30
2019-03-06T10:12:54.456Z,94.20
2019-03-06T10:15:24.542Z,94.00
2019-03-06T10:20:34.561Z,93.90
2019-03-06T10:23:03.095Z,93.40
2019-03-06T10:25:32.214Z,93.50
2019-03-06T10:28:06.153Z,93.50
2019-03-06T10:30:32.030Z,93.60
2019-03-06T10:33:00.565Z,93.60
2019-03-06T10:35:29.083Z,93.30
2019-03-06T10:37:57.855Z,93.20
2019-03-06T10:40:26.393Z,93.00
2019-03-06T10:42:55.231Z,93.40
2019-03-06T10:45:23.895Z,93.50
2019-03-06T10:47:52.619Z,93.40
2019-03-06T10:50:26.548Z,93.50
2019-03-06T10:52:53.274Z,93.50
2019-03-06T10:55:41.205Z,93.50
2019-03-06T10:58:09.827Z,93.70
2019-03-06T11:00:40.333Z,93.90
2019-03-06T11:03:09.100Z,94.20
2019-03-06T11:05:37.730Z,94.30
2019-03-06T11:08:06.856Z,94.30
2019-03-06T11:10:35.712Z,94.30
2019-03-06T11:13:08.558Z,94.20
2019-03-06T11:15:37.501Z,94.10
2019-03-06T11:18:06.187Z,94.30
2019-03-06T11:20:35.978Z,94.20
2019-03-06T11:23:25.352Z,94.10
2019-03-06T11:25:54.129Z,94.00
2019-03-06T11:28:23.000Z,94.20
2019-03-06T11:30:54.368Z,94.20
2019-03-06T11:33:24.584Z,94.30
2019-03-06T11:36:15.396Z,94.30
2019-03-06T11:38:44.397Z,94.10
2019-03-06T11:41:12.969Z,94.00
2019-03-06T11:43:41.481Z,94.20
2019-03-06T11:46:10.767Z,94.00
2019-03-06T11:48:39.308Z,93.80
2019-03-06T11:51:07.918Z,93.60
2019-03-06T11:53:36.612Z,93.80
2019-03-06T11:56:05.849Z,93.80
2019-03-06T11:58:34.375Z,94.40
2019-03-06T12:01:04.919Z,94.00
2019-03-06T12:03:33.430Z,93.90
2019-03-06T12:06:01.956Z,94.10
2019-03-06T12:08:30.507Z,94.10
2019-03-06T12:10:59.161Z,94.10
2019-03-06T12:13:27.684Z,94.30
2019-03-06T12:15:56.468Z,94.10
2019-03-06T12:18:25.309Z,94.30
2019-03-06T12:20:54.381Z,94.10
2019-03-06T12:23:23.017Z,94.00
2019-03-06T12:25:51.602Z,94.30
2019-03-06T12:28:20.136Z,94.50
2019-03-06T12:30:49.078Z,94.70
2019-03-06T12:33:19.913Z,94.60
2019-03-06T12:35:48.672Z,94.70
2019-03-06T12:38:17.633Z,94.70
2019-03-06T12:40:46.156Z,94.70
2019-03-06T12:43:14.675Z,94.70
2019-03-06T12:46:02.587Z,94.40
2019-03-06T12:48:32.676Z,94.80
2019-03-06T12:51:01.137Z,94.80
2019-03-06T12:53:29.860Z,94.90
2019-03-06T12:55:58.477Z,94.50
2019-03-06T12:58:27.020Z,94.20
2019-03-06T13:00:55.735Z,94.30
2019-03-06T13:03:24.175Z,94.40
2019-03-06T13:05:52.687Z,94.20
2019-03-06T13:08:21.172Z,94.30
2019-03-06T13:10:49.953Z,94.30
2019-03-06T13:13:18.944Z,94.30
2019-03-06T13:15:47.864Z,94.40
2019-03-06T13:18:16.376Z,94.50
2019-03-06T13:20:45.040Z,94.30
2019-03-06T13:23:14.427Z,94.80
2019-03-06T13:25:42.960Z,94.40
2019-03-06T13:28:11.755Z,94.20
2019-03-06T13:30:40.521Z,94.20
2019-03-06T13:33:10.684Z,94.30
2019-03-06T13:35:40.301Z,94.30
2019-03-06T13:38:08.862Z,94.10
2019-03-06T13:40:37.406Z,94.20
2019-03-06T13:43:06.069Z,94.50
2019-03-06T13:45:34.565Z,94.10
2019-03-06T13:48:03.151Z,94.10
2019-03-06T13:50:31.732Z,94.00
2019-03-06T13:53:00.376Z,94.00
2019-03-06T13:55:28.893Z,94.20
2019-03-06T13:57:57.616Z,94.30
2019-03-06T14:00:26.405Z,94.30
2019-03-06T14:02:55.010Z,94.70
2019-03-06T14:05:24.339Z,94.90
2019-03-06T14:07:56.480Z,94.60
2019-03-06T14:10:24.248Z,94.60
2019-03-06T14:12:53.107Z,94.70
2019-03-06T14:15:22.367Z,94.70
2019-03-06T14:17:50.812Z,94.60
2019-03-06T14:20:21.664Z,94.70
2019-03-06T14:22:52.412Z,94.90
2019-03-06T14:25:21.931Z,94.90
2019-03-06T14:27:50.730Z,95.20
2019-03-06T14:30:44.409Z,95.30
2019-03-06T14:33:13.003Z,95.30
2019-03-06T14:35:41.767Z,95.30
2019-03-06T14:38:10.318Z,95.40
2019-03-06T14:40:39.077Z,95.40
2019-03-06T14:43:08.639Z,95.20
2019-03-06T14:45:37.535Z,95.40
2019-03-06T14:48:06.740Z,95.30
2019-03-06T14:50:35.493Z,95.50
2019-03-06T14:53:05.870Z,95.50
2019-03-06T14:55:35.844Z,95.40
2019-03-06T14:58:04.624Z,95.20
2019-03-06T15:00:33.314Z,95.20
2019-03-06T15:03:02.037Z,95.20
2019-03-06T15:05:30.556Z,95.20
2019-03-06T15:07:59.194Z,95.20
2019-03-06T15:10:27.966Z,95.40
2019-03-06T15:12:56.612Z,95.80
2019-03-06T15:15:25.303Z,96.30
2019-03-06T15:17:53.915Z,96.60
2019-03-06T15:20:24.167Z,96.50
2019-03-06T15:23:13.496Z,96.60
2019-03-06T15:25:42.034Z,96.90
2019-03-06T15:28:10.564Z,98.20
2019-03-06T15:30:40.452Z,98.60
2019-03-06T15:33:09.061Z,98.40
2019-03-06T15:35:37.574Z,98.40
2019-03-06T15:38:07.973Z,98.10
2019-03-06T15:40:40.360Z,97.30
2019-03-06T15:43:13.125Z,96.70
2019-03-06T15:45:41.812Z,96.30
2019-03-06T15:48:10.339Z,96.10
2019-03-06T15:50:39.067Z,96.10
2019-03-06T15:53:07.755Z,95.90
2019-03-06T15:55:36.205Z,95.90
2019-03-06T15:58:05.403Z,95.80
2019-03-06T16:00:54.825Z,95.50
2019-03-06T16:03:24.197Z,95.50
2019-03-06T16:05:52.734Z,94.80
2019-03-06T16:08:21.255Z,95.00
2019-03-06T16:10:49.880Z,95.10
2019-03-06T16:13:18.640Z,95.10
2019-03-06T16:15:47.214Z,94.80
2019-03-06T16:18:15.760Z,95.00
2019-03-06T16:20:44.513Z,95.30
2019-03-06T16:23:50.691Z,95.50
2019-03-06T16:26:19.145Z,95.40
2019-03-06T16:28:47.658Z,95.50
2019-03-06T16:31:16.734Z,95.60
2019-03-06T16:33:45.262Z,95.80
2019-03-06T16:36:13.930Z,95.60
2019-03-06T16:38:42.467Z,95.50
2019-03-06T16:41:11.066Z,95.60
2019-03-06T16:43:39.516Z,95.50
2019-03-06T16:46:08.148Z,95.50
2019-03-06T16:48:36.807Z,95.60
2019-03-06T16:51:06.383Z,95.50
2019-03-06T16:53:35.027Z,96.10
2019-03-06T16:56:03.666Z,95.90
2019-03-06T16:58:32.196Z,95.70
2019-03-06T17:01:01.292Z,95.80
2019-03-06T17:03:29.902Z,95.60
2019-03-06T17:05:58.467Z,96.30
2019-03-06T17:08:27.057Z,97.10
2019-03-06T17:10:55.699Z,97.20
2019-03-06T17:13:24.396Z,97.30
2019-03-06T17:15:53.014Z,97.40
2019-03-06T17:18:21.592Z,97.20
2019-03-06T17:20:50.196Z,97.00
2019-03-06T17:23:18.760Z,97.00
2019-03-06T17:25:47.449Z,96.70
2019-03-06T17:28:16.312Z,96.80
2019-03-06T17:30:45.006Z,96.20
2019-03-06T17:33:17.265Z,96.30
2019-03-06T17:35:45.936Z,96.20
2019-03-06T17:38:15.734Z,96.30
2019-03-06T17:40:45.001Z,96.10
2019-03-06T17:43:14.250Z,95.90
2019-03-06T17:45:43.138Z,95.90
2019-03-06T17:48:11.729Z,95.70
2019-03-06T17:50:40.399Z,95.70
2019-03-06T17:53:09.213Z,95.50
2019-03-06T17:55:37.915Z,95.50
2019-03-06T17:58:06.686Z,95.40
2019-03-06T18:00:56.427Z,95.50
2019-03-06T18:03:34.806Z,95.20
2019-03-06T18:06:03.386Z,96.30
2019-03-06T18:08:31.918Z,97.10
2019-03-06T18:11:00.447Z,97.70
2019-03-06T18:13:30.011Z,99.80
2019-03-06T18:15:58.549Z,99.90
2019-03-06T18:18:29.127Z,99.90
2019-03-06T18:20:57.344Z,99.90
2019-03-06T18:23:25.915Z,99.90
2019-03-06T18:25:54.506Z,99.90
2019-03-06T18:28:23.131Z,99.90
2019-03-06T18:30:51.731Z,99.90
2019-03-06T18:33:20.250Z,99.90
2019-03-06T18:35:48.880Z,99.90
2019-03-06T18:38:17.566Z,99.90
2019-03-06T18:40:46.280Z,99.90
2019-03-06T18:43:14.930Z,99.90
2019-03-06T18:45:43.444Z,99.90
2019-03-06T18:48:11.966Z,99.90
2019-03-06T18:50:40.531Z,99.90
2019-03-06T18:53:09.114Z,99.90
2019-03-06T18:55:37.705Z,99.90
2019-03-06T18:58:06.307Z,99.90
2019-03-06T19:00:34.897Z,99.90
2019-03-06T19:03:03.531Z,99.90
2019-03-06T19:05:32.105Z,99.90
2019-03-06T19:08:00.615Z,99.90
2019-03-06T19:10:29.225Z,99.90
2019-03-06T19:12:57.785Z,99.90
2019-03-06T19:15:29.523Z,99.90
2019-03-06T19:17:58.089Z,99.90
2019-03-06T19:20:26.878Z,99.90
2019-03-06T19:22:55.489Z,99.90
2019-03-06T19:25:24.423Z,99.90
2019-03-06T19:27:53.034Z,99.90
2019-03-06T19:30:23.110Z,99.90
2019-03-06T19:32:52.099Z,99.90
2019-03-06T19:35:21.906Z,99.80
2019-03-06T19:37:50.560Z,99.90
2019-03-06T19:40:19.508Z,99.60
2019-03-06T19:42:48.143Z,99.40
2019-03-06T19:45:21.444Z,99.60
2019-03-06T19:47:50.753Z,99.70
2019-03-06T19:50:21.891Z,99.40
2019-03-06T19:52:49.706Z,99.30
2019-03-06T19:55:19.348Z,99.20
2019-03-06T19:57:51.018Z,99.20
2019-03-06T20:00:20.792Z,99.10
2019-03-06T20:02:49.851Z,99.60
2019-03-06T20:05:18.973Z,98.80
2019-03-06T20:08:08.637Z,98.90
2019-03-06T20:10:38.634Z,98.70
2019-03-06T20:13:19.480Z,98.70
2019-03-06T20:15:50.958Z,98.70
2019-03-06T20:18:19.568Z,98.70
2019-03-06T20:20:48.316Z,98.20
2019-03-06T20:23:16.949Z,98.30
2019-03-06T20:25:45.597Z,98.60
2019-03-06T20:28:14.113Z,98.40
2019-03-06T20:30:42.744Z,98.40
2019-03-06T20:33:11.679Z,98.10
2019-03-06T20:35:40.475Z,97.60
2019-03-06T20:38:09.150Z,98.30
2019-03-06T20:40:37.677Z,98.80
2019-03-06T20:43:06.200Z,98.60
2019-03-06T20:45:34.779Z,99.00
2019-03-06T20:48:03.373Z,98.30
2019-03-06T20:50:31.921Z,98.40
2019-03-06T20:53:00.548Z,98.20
2019-03-06T20:55:29.167Z,98.10
2019-03-06T20:57:57.930Z,98.50
2019-03-06T21:00:28.178Z,98.60
2019-03-06T21:02:56.730Z,97.70
2019-03-06T21:05:25.371Z,98.00
2019-03-06T21:07:54.066Z,98.10
2019-03-06T21:10:22.518Z,97.70
2019-03-06T21:12:51.902Z,97.90
2019-03-06T21:15:22.453Z,97.80
2019-03-06T21:17:53.695Z,97.70
2019-03-06T21:20:23.369Z,97.40
2019-03-06T21:22:52.009Z,97.30
2019-03-06T21:25:21.688Z,97.30
2019-03-06T21:27:50.803Z,97.60
2019-03-06T21:30:26.251Z,97.40
2019-03-06T21:32:54.776Z,97.10
2019-03-06T21:35:23.363Z,96.70
2019-03-06T21:37:51.923Z,97.00
2019-03-06T21:40:20.452Z,96.70
2019-03-06T21:42:49.175Z,97.20
2019-03-06T21:45:17.878Z,97.10
2019-03-06T21:47:46.400Z,97.10
2019-03-06T21:50:16.857Z,97.20
2019-03-06T21:52:45.416Z,97.20
2019-03-06T21:55:15.186Z,97.00
2019-03-06T21:57:44.049Z,97.30
2019-03-06T22:00:22.821Z,96.90
2019-03-06T22:02:51.427Z,97.20
2019-03-06T22:05:20.175Z,97.00
2019-03-06T22:07:50.520Z,97.10
2019-03-06T22:10:18.985Z,97.30
2019-03-06T22:12:59.652Z,97.10
2019-03-06T22:15:28.121Z,96.60
2019-03-06T22:17:56.632Z,96.40
2019-03-06T22:20:25.212Z,96.10
2019-03-06T22:22:53.741Z,96.10
2019-03-06T22:25:22.742Z,96.20
2019-03-06T22:27:51.277Z,96.30
2019-03-06T22:30:22.654Z,96.60
2019-03-06T22:32:51.181Z,96.70
2019-03-06T22:35:19.903Z,96.60
2019-03-06T22:37:48.505Z,96.30
2019-03-06T22:40:18.448Z,95.80
2019-03-06T22:42:47.013Z,95.60
2019-03-06T22:45:19.891Z,95.00
2019-03-06T22:47:48.553Z,94.00
2019-03-06T22:50:18.239Z,93.40
2019-03-06T22:52:46.908Z,93.10
2019-03-06T22:55:17.523Z,93.50
2019-03-06T22:57:46.158Z,93.50
2019-03-06T23:00:29.999Z,93.20
2019-03-06T23:02:58.963Z,93.50
2019-03-06T23:08:14.460Z,93.10
2019-03-06T23:10:43.236Z,93.40
2019-03-06T23:13:26.813Z,93.40
2019-03-06T23:15:55.264Z,93.30
2019-03-06T23:18:24.038Z,93.10
2019-03-06T23:21:05.259Z,93.70
2019-03-06T23:23:33.792Z,93.60
2019-03-06T23:26:02.301Z,93.40
2019-03-06T23:28:30.781Z,93.50
2019-03-06T23:30:59.305Z,93.80
2019-03-06T23:33:27.935Z,93.70
2019-03-06T23:35:56.478Z,93.50
2019-03-06T23:38:25.003Z,93.50
2019-03-06T23:40:53.505Z,93.40
2019-03-06T23:43:22.061Z,92.90
2019-03-06T23:46:11.665Z,92.90
2019-03-06T23:48:40.110Z,93.00
2019-03-06T23:51:10.444Z,93.20
2019-03-06T23:53:43.349Z,92.90
2019-03-06T23:56:11.915Z,93.20
2019-03-06T23:58:40.425Z,93.20
